METAR Data
IDs: Format: Raw Decoded Include TAF

Data at: 0239 UTC 29 Nov 2020

METAR for:KFPK (Charotte/Beach Fld, MI, US)
Text:KFPK 290235Z AUTO 22009KT 10SM CLR 04/M01 A3002 RMK AO2 T00421014
Temperature: 4.2°C ( 40°F)
Dewpoint: -1.4°C ( 29°F) [RH = 67%]
Pressure (altimeter):30.02 inches Hg (1016.7 mb)
Winds:from the SW (220 degrees) at 10 MPH (9 knots; 4.6 m/s)
Visibility:10 or more sm (16+ km)
Ceiling:at least 12,000 feet AGL
Clouds:sky clear below 12,000 feet AGL
QC Flag:automated observation with no human augmentation

TAF for:KFPK (Charotte/Beach Fld, MI, US)
Text:No data found

METAR for:KLAN (Lansing/Capital City, MI, US)
Text:KLAN 290153Z 21010G19KT 10SM CLR 04/M03 A3002 RMK AO2 SLP176 T00391028 $
Temperature: 3.9°C ( 39°F)
Dewpoint: -2.8°C ( 27°F) [RH = 62%]
Pressure (altimeter):30.02 inches Hg (1016.7 mb) [Sea level pressure: 1017.6 mb]
Winds:from the SSW (210 degrees) at 12 MPH (10 knots; 5.1 m/s) gusting to 22 MPH (19 knots; 9.8 m/s)
Visibility:10 or more sm (16+ km)
Ceiling:at least 12,000 feet AGL
Clouds:sky clear below 12,000 feet AGL
QC Flag:SOME DATA ABOVE MAY BE INACCURATE!!!"$" is an indication the sensor requires maintenance.

TAF for:KLAN (Lansing/Capital City, MI, US) issued at 2321 UTC 28 Nov 2020
Text:KLAN 282321Z 2900/2924 21010KT P6SM SKC
Forecast period:0000 to 0300 UTC 29 November 2020
Forecast type:FROM: standard forecast or significant change
Winds:from the SSW (210 degrees) at 12 MPH (10 knots; 5.1 m/s)
Visibility:6 or more sm (10+ km)
Ceiling:at least 12,000 feet AGL
Clouds:clear skies
Text:FM290300 20011KT P6SM SKC WS020/26035KT
Forecast period:0300 to 1400 UTC 29 November 2020
Forecast type:FROM: standard forecast or significant change
Winds:from the SSW (200 degrees) at 13 MPH (11 knots; 5.7 m/s)
Visibility:6 or more sm (10+ km)
Ceiling:at least 12,000 feet AGL
Clouds:clear skies
Wind Shear:260 degrees at 35 knots at 2000 feet AGL
Text:FM291400 22008KT P6SM BKN250
Forecast period:1400 to 2000 UTC 29 November 2020
Forecast type:FROM: standard forecast or significant change
Winds:from the SW (220 degrees) at 9 MPH (8 knots; 4.1 m/s)
Visibility:6 or more sm (10+ km)
Ceiling:25000 feet AGL
Clouds: broken clouds at 25000 feet AGL
Text:FM292000 23011G19KT P6SM BKN250
Forecast period:2000 UTC 29 November 2020 to 0000 UTC 30 November 2020
Forecast type:FROM: standard forecast or significant change
Winds:from the SW (230 degrees) at 13 MPH (11 knots; 5.7 m/s) gusting to 22 MPH (19 knots; 9.8 m/s)
Visibility:6 or more sm (10+ km)
Ceiling:25000 feet AGL
Clouds: broken clouds at 25000 feet AGL